Hakuhomaru — JJ4011 — position and weather

sailwx.info

Track history (hours):
 
Tides and Currents Weather Stations Pressure Air Temp Water Temp Dewpoint Dewpoint Depression Visibility Wind Speed Wind Dir Waves Ship Positions

Hakuhomaru

Last reported at 2016-Feb-11 07:33 UTC. Time now 2016-Feb-12 01:21 UTC.
Position N 34°41' E 135°14'.

Length 38 m; draft 3.3 m.

Type: Tug. MMSI: 431401584.

Date/timePositionNaut miles runAvg speedWind from/ knotsBaromVisibWave heightAir tempDewpointWater temp
2016-Feb-11 07:33N 34°41' E 135°14'1 1.2
2016-Feb-11 06:33N 34°39' E 135°15'0 0.4
2016-Feb-11 05:33N 34°40' E 135°15'2 2.2
2016-Feb-11 04:33N 34°41' E 135°17'3 3.1
2016-Feb-11 03:33N 34°40' E 135°13'0 0.0
2016-Feb-11 02:33N 34°40' E 135°13'3 2.6
2016-Feb-11 01:33N 34°39' E 135°16'1 0.8
2016-Feb-11 00:33N 34°39' E 135°15'0 0.3
2016-Feb-10 23:33N 34°39' E 135°15'3 2.6
2016-Feb-10 22:32N 34°41' E 135°17'1 0.8
2016-Feb-10 21:33N 34°41' E 135°17'4 4.0
2016-Feb-10 20:33N 34°41' E 135°12'0 0.0
2016-Feb-10 06:33N 34°41' E 135°12'0 0.0
2016-Feb-10 05:33N 34°41' E 135°12'0 0.0
2016-Feb-10 04:33N 34°41' E 135°12'0 0.0
2016-Feb-10 03:33N 34°41' E 135°12'0 0.0
2016-Feb-10 02:33N 34°41' E 135°12'1 1.1
2016-Feb-10 01:33N 34°41' E 135°13'1 1.1
2016-Feb-10 00:33N 34°41' E 135°12'0 0.0
2016-Feb-09 23:33N 34°41' E 135°12'0 0.0
2016-Feb-09 22:33N 34°41' E 135°12'1 1.4
2016-Feb-09 21:33N 34°39' E 135°12'1 1.4
2016-Feb-09 20:33N 34°41' E 135°12'0 0.0
2016-Feb-09 07:23N 34°41' E 135°12'2 3.0
2016-Feb-09 06:33N 34°41' E 135°15'2 2.4
2016-Feb-09 05:33N 34°41' E 135°12'0 0.0
2016-Feb-09 04:33N 34°41' E 135°12'0 0.0
2016-Feb-09 03:33N 34°41' E 135°12'0 0.0
2016-Feb-09 02:33N 34°41' E 135°12'0 0.0
2016-Feb-09 01:33N 34°41' E 135°12'0 0.0
2016-Feb-09 00:33N 34°41' E 135°12'0 0.0
2016-Feb-08 23:33N 34°41' E 135°12'0 0.0
2016-Feb-08 06:33N 34°41' E 135°12'3 3.2
2016-Feb-08 05:33N 34°42' E 135°16'3 3.2
2016-Feb-08 04:33N 34°41' E 135°12'0 0.0
2016-Feb-08 03:33N 34°41' E 135°12'0 0.0
2016-Feb-08 02:33N 34°41' E 135°12'0 0.0
2016-Feb-08 01:33N 34°41' E 135°12'0 0.0
2016-Feb-08 00:33N 34°41' E 135°12'3 3.0
2016-Feb-07 23:33N 34°42' E 135°15'1 0.9
2016-Feb-07 22:33N 34°41' E 135°15'3 2.6
2016-Feb-07 21:33N 34°42' E 135°18'5 4.8
2016-Feb-07 20:33N 34°41' E 135°12'0 0.0
2016-Feb-07 10:08N 34°41' E 135°12'2 4.2
2016-Feb-07 09:33N 34°42' E 135°15'1 1.1
2016-Feb-07 08:34N 34°41' E 135°15'1 0.5
2016-Feb-07 07:32N 34°40' E 135°15'2 1.9
2016-Feb-07 06:33N 34°41' E 135°12'0 0.0
2016-Feb-07 05:33N 34°41' E 135°12'0 0.0
2016-Feb-07 04:33N 34°41' E 135°12'0 0.0
2016-Feb-07 03:33N 34°41' E 135°12'0 0.0
2016-Feb-07 02:33N 34°41' E 135°12'0 0.0
2016-Feb-07 01:33N 34°41' E 135°12'2 2.2
2016-Feb-07 00:33N 34°41' E 135°15'1 0.9
2016-Feb-06 23:34N 34°40' E 135°15'2 2.1
2016-Feb-06 22:33N 34°41' E 135°12'0 0.0
2016-Feb-06 21:33N 34°41' E 135°12'0 0.0
2016-Feb-06 10:23N 34°41' E 135°12'4 4.7
2016-Feb-06 09:33N 34°42' E 135°17'3 3.4
2016-Feb-06 08:33N 34°41' E 135°13'0 0.0
2016-Feb-06 07:33N 34°41' E 135°13'0 0.0
2016-Feb-06 06:33N 34°41' E 135°13'4 3.6
2016-Feb-06 05:33N 34°42' E 135°17'2 2.5
2016-Feb-06 04:33N 34°41' E 135°15'2 2.0
2016-Feb-06 03:33N 34°41' E 135°12'0 0.0
2016-Feb-06 02:33N 34°41' E 135°12'0 0.0
2016-Feb-06 01:33N 34°41' E 135°12'0 0.0
2016-Feb-06 00:33N 34°41' E 135°12'0 0.0
2016-Feb-05 23:33N 34°41' E 135°12'0 0.0
2016-Feb-05 07:30N 34°41' E 135°12'1 1.0
2016-Feb-05 06:33N 34°41' E 135°13'1 0.9
2016-Feb-05 05:33N 34°41' E 135°12'0 0.0
2016-Feb-05 04:33N 34°41' E 135°12'0 0.0
2016-Feb-05 03:33N 34°41' E 135°12'0 0.0
2016-Feb-05 02:33N 34°41' E 135°12'0 0.0
2016-Feb-05 01:33N 34°41' E 135°12'0 0.0
2016-Feb-05 00:33N 34°41' E 135°12'3 3.3
2016-Feb-04 23:33N 34°42' E 135°16'0 0.4
2016-Feb-04 22:33N 34°42' E 135°15'1 0.7
2016-Feb-04 21:32N 34°41' E 135°15'2 2.5
2016-Feb-04 20:33N 34°41' E 135°12'0 0.0
2016-Feb-04 07:31N 34°41' E 135°12'2 1.9
2016-Feb-04 06:33N 34°40' E 135°14'1 0.6
2016-Feb-04 05:32N 34°40' E 135°15'2 2.2
2016-Feb-04 04:33N 34°41' E 135°12'0 0.0
2016-Feb-04 03:33N 34°41' E 135°12'0 0.0
2016-Feb-04 02:33N 34°41' E 135°12'0 0.0
2016-Feb-04 01:33N 34°41' E 135°12'0 0.0
2016-Feb-04 00:33N 34°41' E 135°12'0 0.0
2016-Feb-03 23:33N 34°41' E 135°12'3 2.6
2016-Feb-03 22:33N 34°39' E 135°15'1 1.2
2016-Feb-03 21:32N 34°40' E 135°14'0 0.0
2016-Feb-03 20:33N 34°40' E 135°14'0 0.0
2016-Feb-03 19:33N 34°40' E 135°14'0 0.0
2016-Feb-03 18:33N 34°40' E 135°14'0 0.0
2016-Feb-03 17:32N 34°40' E 135°14'0 0.0
2016-Feb-03 16:33N 34°40' E 135°14'0 0.0
2016-Feb-03 15:33N 34°40' E 135°14'1 0.8
2016-Feb-03 14:33N 34°40' E 135°14'0 0.1
2016-Feb-03 13:33N 34°40' E 135°14'0 0.0
2016-Feb-03 12:33N 34°40' E 135°14'0 0.0
2016-Feb-03 11:33N 34°40' E 135°14'1 1.2
2016-Feb-03 10:33N 34°41' E 135°15'1 0.9
2016-Feb-03 09:33N 34°40' E 135°15'1 1.3
2016-Feb-03 08:33N 34°40' E 135°13'2 1.6
2016-Feb-03 07:33N 34°41' E 135°14'2 1.8
2016-Feb-03 06:33N 34°41' E 135°12'0 0.0
2016-Feb-03 05:33N 34°41' E 135°12'0 0.0
2016-Feb-03 04:33N 34°41' E 135°12'2 1.5
2016-Feb-03 03:33N 34°42' E 135°14'0 0.0
2016-Feb-03 02:33N 34°42' E 135°14'0 0.0
2016-Feb-03 01:33N 34°42' E 135°14'2 1.9
2016-Feb-03 00:33N 34°41' E 135°16'0 0.4
2016-Feb-02 23:33N 34°41' E 135°16'2 1.7
2016-Feb-02 22:33N 34°40' E 135°18'5 4.9
2016-Feb-02 21:33N 34°41' E 135°12'0 0.0
2016-Feb-02 20:33N 34°41' E 135°12'1 0.1
2016-Feb-02 07:33N 34°41' E 135°13'3 3.5
2016-Feb-02 06:33N 34°41' E 135°17'4 4.1
2016-Feb-02 05:33N 34°41' E 135°12'0 0.0
2016-Feb-02 04:33N 34°41' E 135°12'0 0.0
2016-Feb-02 03:32N 34°41' E 135°12'0 0.0
2016-Feb-02 02:33N 34°41' E 135°12'0 0.0
2016-Feb-02 01:33N 34°41' E 135°12'0 0.0
2016-Feb-02 00:33N 34°41' E 135°12'0 0.2
2016-Feb-01 23:33N 34°41' E 135°12'5 5.1
2016-Feb-01 22:33N 34°40' E 135°18'3 3.0
2016-Feb-01 21:33N 34°41' E 135°15'2 2.1
2016-Feb-01 20:33N 34°41' E 135°12'  
Track history (hours):
 
Tides and Currents Weather Stations Pressure Air Temp Water Temp Dewpoint Dewpoint Depression Visibility Wind Speed Wind Dir Waves Ship Positions

Hakuhomaru

Last reported at 2016-Feb-11 07:33 UTC. Time now 2016-Feb-12 01:21 UTC.
Position N 34°41' E 135°14'.

Length 38 m; draft 3.3 m.

Type: Tug. MMSI: 431401584.

Date/timePositionNaut miles runAvg speedWind from/ knotsBaromVisibWave heightAir tempDewpointWater temp
2016-Feb-11 07:33N 34°41' E 135°14'1 1.2
2016-Feb-11 06:33N 34°39' E 135°15'0 0.4
2016-Feb-11 05:33N 34°40' E 135°15'2 2.2
2016-Feb-11 04:33N 34°41' E 135°17'3 3.1
2016-Feb-11 03:33N 34°40' E 135°13'0 0.0
2016-Feb-11 02:33N 34°40' E 135°13'3 2.6
2016-Feb-11 01:33N 34°39' E 135°16'1 0.8
2016-Feb-11 00:33N 34°39' E 135°15'0 0.3
2016-Feb-10 23:33N 34°39' E 135°15'3 2.6
2016-Feb-10 22:32N 34°41' E 135°17'1 0.8
2016-Feb-10 21:33N 34°41' E 135°17'4 4.0
2016-Feb-10 20:33N 34°41' E 135°12'0 0.0
2016-Feb-10 06:33N 34°41' E 135°12'0 0.0
2016-Feb-10 05:33N 34°41' E 135°12'0 0.0
2016-Feb-10 04:33N 34°41' E 135°12'0 0.0
2016-Feb-10 03:33N 34°41' E 135°12'0 0.0
2016-Feb-10 02:33N 34°41' E 135°12'1 1.1
2016-Feb-10 01:33N 34°41' E 135°13'1 1.1
2016-Feb-10 00:33N 34°41' E 135°12'0 0.0
2016-Feb-09 23:33N 34°41' E 135°12'0 0.0
2016-Feb-09 22:33N 34°41' E 135°12'1 1.4
2016-Feb-09 21:33N 34°39' E 135°12'1 1.4
2016-Feb-09 20:33N 34°41' E 135°12'0 0.0
2016-Feb-09 07:23N 34°41' E 135°12'2 3.0
2016-Feb-09 06:33N 34°41' E 135°15'2 2.4
2016-Feb-09 05:33N 34°41' E 135°12'0 0.0
2016-Feb-09 04:33N 34°41' E 135°12'0 0.0
2016-Feb-09 03:33N 34°41' E 135°12'0 0.0
2016-Feb-09 02:33N 34°41' E 135°12'0 0.0
2016-Feb-09 01:33N 34°41' E 135°12'0 0.0
2016-Feb-09 00:33N 34°41' E 135°12'0 0.0
2016-Feb-08 23:33N 34°41' E 135°12'0 0.0
2016-Feb-08 06:33N 34°41' E 135°12'3 3.2
2016-Feb-08 05:33N 34°42' E 135°16'3 3.2
2016-Feb-08 04:33N 34°41' E 135°12'0 0.0
2016-Feb-08 03:33N 34°41' E 135°12'0 0.0
2016-Feb-08 02:33N 34°41' E 135°12'0 0.0
2016-Feb-08 01:33N 34°41' E 135°12'0 0.0
2016-Feb-08 00:33N 34°41' E 135°12'3 3.0
2016-Feb-07 23:33N 34°42' E 135°15'1 0.9
2016-Feb-07 22:33N 34°41' E 135°15'3 2.6
2016-Feb-07 21:33N 34°42' E 135°18'5 4.8
2016-Feb-07 20:33N 34°41' E 135°12'0 0.0
2016-Feb-07 10:08N 34°41' E 135°12'2 4.2
2016-Feb-07 09:33N 34°42' E 135°15'1 1.1
2016-Feb-07 08:34N 34°41' E 135°15'1 0.5
2016-Feb-07 07:32N 34°40' E 135°15'2 1.9
2016-Feb-07 06:33N 34°41' E 135°12'0 0.0
2016-Feb-07 05:33N 34°41' E 135°12'0 0.0
2016-Feb-07 04:33N 34°41' E 135°12'0 0.0
2016-Feb-07 03:33N 34°41' E 135°12'0 0.0
2016-Feb-07 02:33N 34°41' E 135°12'0 0.0
2016-Feb-07 01:33N 34°41' E 135°12'2 2.2
2016-Feb-07 00:33N 34°41' E 135°15'1 0.9
2016-Feb-06 23:34N 34°40' E 135°15'2 2.1
2016-Feb-06 22:33N 34°41' E 135°12'0 0.0
2016-Feb-06 21:33N 34°41' E 135°12'0 0.0
2016-Feb-06 10:23N 34°41' E 135°12'4 4.7
2016-Feb-06 09:33N 34°42' E 135°17'3 3.4
2016-Feb-06 08:33N 34°41' E 135°13'0 0.0
2016-Feb-06 07:33N 34°41' E 135°13'0 0.0
2016-Feb-06 06:33N 34°41' E 135°13'4 3.6
2016-Feb-06 05:33N 34°42' E 135°17'2 2.5
2016-Feb-06 04:33N 34°41' E 135°15'2 2.0
2016-Feb-06 03:33N 34°41' E 135°12'0 0.0
2016-Feb-06 02:33N 34°41' E 135°12'0 0.0
2016-Feb-06 01:33N 34°41' E 135°12'0 0.0
2016-Feb-06 00:33N 34°41' E 135°12'0 0.0
2016-Feb-05 23:33N 34°41' E 135°12'0 0.0
2016-Feb-05 07:30N 34°41' E 135°12'1 1.0
2016-Feb-05 06:33N 34°41' E 135°13'1 0.9
2016-Feb-05 05:33N 34°41' E 135°12'0 0.0
2016-Feb-05 04:33N 34°41' E 135°12'0 0.0
2016-Feb-05 03:33N 34°41' E 135°12'0 0.0
2016-Feb-05 02:33N 34°41' E 135°12'0 0.0
2016-Feb-05 01:33N 34°41' E 135°12'0 0.0
2016-Feb-05 00:33N 34°41' E 135°12'3 3.3
2016-Feb-04 23:33N 34°42' E 135°16'0 0.4
2016-Feb-04 22:33N 34°42' E 135°15'1 0.7
2016-Feb-04 21:32N 34°41' E 135°15'2 2.5
2016-Feb-04 20:33N 34°41' E 135°12'0 0.0
2016-Feb-04 07:31N 34°41' E 135°12'2 1.9
2016-Feb-04 06:33N 34°40' E 135°14'1 0.6
2016-Feb-04 05:32N 34°40' E 135°15'2 2.2
2016-Feb-04 04:33N 34°41' E 135°12'0 0.0
2016-Feb-04 03:33N 34°41' E 135°12'0 0.0
2016-Feb-04 02:33N 34°41' E 135°12'0 0.0
2016-Feb-04 01:33N 34°41' E 135°12'0 0.0
2016-Feb-04 00:33N 34°41' E 135°12'0 0.0
2016-Feb-03 23:33N 34°41' E 135°12'3 2.6
2016-Feb-03 22:33N 34°39' E 135°15'1 1.2
2016-Feb-03 21:32N 34°40' E 135°14'0 0.0
2016-Feb-03 20:33N 34°40' E 135°14'0 0.0
2016-Feb-03 19:33N 34°40' E 135°14'0 0.0
2016-Feb-03 18:33N 34°40' E 135°14'0 0.0
2016-Feb-03 17:32N 34°40' E 135°14'0 0.0
2016-Feb-03 16:33N 34°40' E 135°14'0 0.0
2016-Feb-03 15:33N 34°40' E 135°14'1 0.8
2016-Feb-03 14:33N 34°40' E 135°14'0 0.1
2016-Feb-03 13:33N 34°40' E 135°14'0 0.0
2016-Feb-03 12:33N 34°40' E 135°14'0 0.0
2016-Feb-03 11:33N 34°40' E 135°14'1 1.2
2016-Feb-03 10:33N 34°41' E 135°15'1 0.9
2016-Feb-03 09:33N 34°40' E 135°15'1 1.3
2016-Feb-03 08:33N 34°40' E 135°13'2 1.6
2016-Feb-03 07:33N 34°41' E 135°14'2 1.8
2016-Feb-03 06:33N 34°41' E 135°12'0 0.0
2016-Feb-03 05:33N 34°41' E 135°12'0 0.0
2016-Feb-03 04:33N 34°41' E 135°12'2 1.5
2016-Feb-03 03:33N 34°42' E 135°14'0 0.0
2016-Feb-03 02:33N 34°42' E 135°14'0 0.0
2016-Feb-03 01:33N 34°42' E 135°14'2 1.9
2016-Feb-03 00:33N 34°41' E 135°16'0 0.4
2016-Feb-02 23:33N 34°41' E 135°16'2 1.7
2016-Feb-02 22:33N 34°40' E 135°18'5 4.9
2016-Feb-02 21:33N 34°41' E 135°12'0 0.0
2016-Feb-02 20:33N 34°41' E 135°12'1 0.1
2016-Feb-02 07:33N 34°41' E 135°13'3 3.5
2016-Feb-02 06:33N 34°41' E 135°17'4 4.1
2016-Feb-02 05:33N 34°41' E 135°12'0 0.0
2016-Feb-02 04:33N 34°41' E 135°12'0 0.0
2016-Feb-02 03:32N 34°41' E 135°12'0 0.0
2016-Feb-02 02:33N 34°41' E 135°12'0 0.0
2016-Feb-02 01:33N 34°41' E 135°12'0 0.0
2016-Feb-02 00:33N 34°41' E 135°12'0 0.2
2016-Feb-01 23:33N 34°41' E 135°12'5 5.1
2016-Feb-01 22:33N 34°40' E 135°18'3 3.0
2016-Feb-01 21:33N 34°41' E 135°15'2 2.1
2016-Feb-01 20:33N 34°41' E 135°12'  

Dump ship's entire track history